sensor_id;sensor_type;location;lat;lon;timestamp;P1;durP1;ratioP1;P2;durP2;ratioP2
72053;SDS011;59918;51.280;7.950;2023-05-16T00:00:31;34.13;;;21.77;;
72053;SDS011;59918;51.280;7.950;2023-05-16T00:02:56;36.38;;;21.83;;
72053;SDS011;59918;51.280;7.950;2023-05-16T00:05:21;35.20;;;22.42;;
72053;SDS011;59918;51.280;7.950;2023-05-16T00:07:47;35.88;;;22.50;;
72053;SDS011;59918;51.280;7.950;2023-05-16T00:10:12;38.22;;;22.40;;
72053;SDS011;59918;51.280;7.950;2023-05-16T00:12:46;36.65;;;21.85;;
72053;SDS011;59918;51.280;7.950;2023-05-16T00:15:11;38.58;;;23.08;;
72053;SDS011;59918;51.280;7.950;2023-05-16T00:17:42;33.95;;;21.15;;
72053;SDS011;59918;51.280;7.950;2023-05-16T00:20:08;35.92;;;21.77;;
72053;SDS011;59918;51.280;7.950;2023-05-16T00:22:34;34.50;;;21.55;;
72053;SDS011;59918;51.280;7.950;2023-05-16T00:24:59;40.42;;;23.27;;
72053;SDS011;59918;51.280;7.950;2023-05-16T00:27:24;35.65;;;22.52;;
72053;SDS011;59918;51.280;7.950;2023-05-16T00:29:54;35.63;;;21.92;;
72053;SDS011;59918;51.280;7.950;2023-05-16T00:32:20;37.67;;;22.75;;
72053;SDS011;59918;51.280;7.950;2023-05-16T00:34:45;37.63;;;23.13;;
72053;SDS011;59918;51.280;7.950;2023-05-16T00:37:10;40.53;;;22.92;;
72053;SDS011;59918;51.280;7.950;2023-05-16T00:39:36;30.58;;;17.33;;
72053;SDS011;59918;51.280;7.950;2023-05-16T00:42:07;28.98;;;17.20;;
72053;SDS011;59918;51.280;7.950;2023-05-16T00:44:32;24.02;;;16.00;;
72053;SDS011;59918;51.280;7.950;2023-05-16T00:46:57;16.63;;;11.73;;
72053;SDS011;59918;51.280;7.950;2023-05-16T00:49:23;17.98;;;12.43;;
72053;SDS011;59918;51.280;7.950;2023-05-16T00:51:48;16.45;;;12.23;;
72053;SDS011;59918;51.280;7.950;2023-05-16T00:54:17;14.85;;;11.35;;
72053;SDS011;59918;51.280;7.950;2023-05-16T00:56:43;14.88;;;11.13;;
72053;SDS011;59918;51.280;7.950;2023-05-16T00:59:08;15.02;;;10.45;;
72053;SDS011;59918;51.280;7.950;2023-05-16T01:01:34;17.33;;;11.05;;
72053;SDS011;59918;51.280;7.950;2023-05-16T01:04:00;16.23;;;11.55;;
72053;SDS011;59918;51.280;7.950;2023-05-16T01:06:28;14.25;;;9.88;;
72053;SDS011;59918;51.280;7.950;2023-05-16T01:08:54;13.60;;;10.25;;
72053;SDS011;59918;51.280;7.950;2023-05-16T01:17:07;9.70;;;7.75;;
72053;SDS011;59918;51.280;7.950;2023-05-16T01:28:44;8.15;;;6.53;;
72053;SDS011;59918;51.280;7.950;2023-05-16T01:31:10;8.05;;;6.93;;
72053;SDS011;59918;51.280;7.950;2023-05-16T01:33:35;8.93;;;6.80;;
72053;SDS011;59918;51.280;7.950;2023-05-16T01:41:46;7.82;;;5.75;;
72053;SDS011;59918;51.280;7.950;2023-05-16T01:44:24;6.95;;;5.00;;
72053;SDS011;59918;51.280;7.950;2023-05-16T01:46:55;5.03;;;4.43;;
72053;SDS011;59918;51.280;7.950;2023-05-16T01:49:30;4.57;;;4.18;;
72053;SDS011;59918;51.280;7.950;2023-05-16T01:52:00;5.78;;;5.07;;
72053;SDS011;59918;51.280;7.950;2023-05-16T01:54:30;5.10;;;4.60;;
72053;SDS011;59918;51.280;7.950;2023-05-16T01:56:56;4.35;;;4.05;;
72053;SDS011;59918;51.280;7.950;2023-05-16T01:59:24;5.78;;;4.03;;
72053;SDS011;59918;51.280;7.950;2023-05-16T02:01:56;7.35;;;5.60;;
72053;SDS011;59918;51.280;7.950;2023-05-16T02:04:21;7.13;;;6.37;;
72053;SDS011;59918;51.280;7.950;2023-05-16T02:06:46;9.32;;;7.35;;
72053;SDS011;59918;51.280;7.950;2023-05-16T02:09:12;8.90;;;7.72;;
72053;SDS011;59918;51.280;7.950;2023-05-16T02:11:37;8.85;;;7.60;;
72053;SDS011;59918;51.280;7.950;2023-05-16T02:14:08;10.10;;;7.90;;
72053;SDS011;59918;51.280;7.950;2023-05-16T02:16:36;9.65;;;8.18;;
72053;SDS011;59918;51.280;7.950;2023-05-16T02:19:01;13.45;;;8.82;;
72053;SDS011;59918;51.280;7.950;2023-05-16T02:21:35;11.30;;;8.18;;
72053;SDS011;59918;51.280;7.950;2023-05-16T02:24:00;8.25;;;7.20;;
72053;SDS011;59918;51.280;7.950;2023-05-16T02:26:29;7.63;;;6.78;;
72053;SDS011;59918;51.280;7.950;2023-05-16T02:28:54;8.43;;;7.63;;
72053;SDS011;59918;51.280;7.950;2023-05-16T02:31:32;8.98;;;7.13;;
72053;SDS011;59918;51.280;7.950;2023-05-16T02:33:58;8.23;;;7.28;;
72053;SDS011;59918;51.280;7.950;2023-05-16T02:36:23;8.10;;;7.13;;
72053;SDS011;59918;51.280;7.950;2023-05-16T02:38:49;9.40;;;7.78;;
72053;SDS011;59918;51.280;7.950;2023-05-16T02:41:17;7.45;;;6.30;;
72053;SDS011;59918;51.280;7.950;2023-05-16T02:43:43;8.65;;;6.80;;
72053;SDS011;59918;51.280;7.950;2023-05-16T02:48:57;5.88;;;5.20;;
72053;SDS011;59918;51.280;7.950;2023-05-16T02:51:23;4.97;;;4.57;;
72053;SDS011;59918;51.280;7.950;2023-05-16T02:53:53;5.10;;;4.55;;
72053;SDS011;59918;51.280;7.950;2023-05-16T02:56:18;4.82;;;4.20;;
72053;SDS011;59918;51.280;7.950;2023-05-16T02:58:45;5.18;;;4.68;;
72053;SDS011;59918;51.280;7.950;2023-05-16T03:01:12;4.25;;;3.88;;
72053;SDS011;59918;51.280;7.950;2023-05-16T03:03:41;5.85;;;3.25;;
72053;SDS011;59918;51.280;7.950;2023-05-16T03:06:06;2.05;;;1.95;;
72053;SDS011;59918;51.280;7.950;2023-05-16T03:08:31;1.30;;;1.20;;
72053;SDS011;59918;51.280;7.950;2023-05-16T03:10:57;1.30;;;1.20;;
72053;SDS011;59918;51.280;7.950;2023-05-16T03:13:23;0.63;;;0.63;;
72053;SDS011;59918;51.280;7.950;2023-05-16T03:15:48;0.75;;;0.40;;
72053;SDS011;59918;51.280;7.950;2023-05-16T03:18:16;1.02;;;0.50;;
72053;SDS011;59918;51.280;7.950;2023-05-16T03:20:42;1.10;;;0.68;;
72053;SDS011;59918;51.280;7.950;2023-05-16T03:23:07;0.77;;;0.77;;
72053;SDS011;59918;51.280;7.950;2023-05-16T03:25:33;0.55;;;0.55;;
72053;SDS011;59918;51.280;7.950;2023-05-16T03:27:59;0.52;;;0.50;;
72053;SDS011;59918;51.280;7.950;2023-05-16T03:30:24;0.60;;;0.60;;
72053;SDS011;59918;51.280;7.950;2023-05-16T03:32:49;0.40;;;0.40;;
72053;SDS011;59918;51.280;7.950;2023-05-16T03:35:20;0.47;;;0.47;;
72053;SDS011;59918;51.280;7.950;2023-05-16T03:37:46;2.33;;;0.65;;
72053;SDS011;59918;51.280;7.950;2023-05-16T03:40:11;0.85;;;0.57;;
72053;SDS011;59918;51.280;7.950;2023-05-16T03:42:37;2.72;;;0.60;;
72053;SDS011;59918;51.280;7.950;2023-05-16T03:45:05;0.93;;;0.70;;
72053;SDS011;59918;51.280;7.950;2023-05-16T03:47:31;0.80;;;0.80;;
72053;SDS011;59918;51.280;7.950;2023-05-16T03:49:57;5.65;;;0.70;;
72053;SDS011;59918;51.280;7.950;2023-05-16T03:52:22;2.40;;;0.90;;
72053;SDS011;59918;51.280;7.950;2023-05-16T03:54:47;2.78;;;0.98;;
72053;SDS011;59918;51.280;7.950;2023-05-16T03:57:13;2.17;;;0.65;;
72053;SDS011;59918;51.280;7.950;2023-05-16T03:59:41;2.35;;;1.30;;
72053;SDS011;59918;51.280;7.950;2023-05-16T04:02:06;4.75;;;0.80;;
72053;SDS011;59918;51.280;7.950;2023-05-16T04:04:32;1.67;;;1.10;;
72053;SDS011;59918;51.280;7.950;2023-05-16T04:06:57;2.30;;;1.38;;
72053;SDS011;59918;51.280;7.950;2023-05-16T04:09:22;2.65;;;1.50;;
72053;SDS011;59918;51.280;7.950;2023-05-16T04:11:48;1.80;;;1.70;;
72053;SDS011;59918;51.280;7.950;2023-05-16T04:14:19;2.92;;;2.30;;
72053;SDS011;59918;51.280;7.950;2023-05-16T04:16:44;3.97;;;2.30;;
72053;SDS011;59918;51.280;7.950;2023-05-16T04:19:10;2.50;;;2.15;;
72053;SDS011;59918;51.280;7.950;2023-05-16T04:21:35;4.10;;;2.47;;
72053;SDS011;59918;51.280;7.950;2023-05-16T04:24:00;5.03;;;3.45;;
72053;SDS011;59918;51.280;7.950;2023-05-16T04:26:29;3.47;;;2.42;;
72053;SDS011;59918;51.280;7.950;2023-05-16T04:28:54;3.80;;;2.60;;
72053;SDS011;59918;51.280;7.950;2023-05-16T04:31:21;6.90;;;2.60;;
72053;SDS011;59918;51.280;7.950;2023-05-16T04:33:46;3.92;;;3.00;;
72053;SDS011;59918;51.280;7.950;2023-05-16T04:36:11;4.93;;;2.63;;
72053;SDS011;59918;51.280;7.950;2023-05-16T04:38:37;3.88;;;2.53;;
72053;SDS011;59918;51.280;7.950;2023-05-16T04:41:05;5.15;;;2.58;;
72053;SDS011;59918;51.280;7.950;2023-05-16T04:43:30;5.55;;;2.70;;
72053;SDS011;59918;51.280;7.950;2023-05-16T04:45:56;6.43;;;3.85;;
72053;SDS011;59918;51.280;7.950;2023-05-16T04:48:21;7.07;;;3.08;;
72053;SDS011;59918;51.280;7.950;2023-05-16T04:50:46;9.27;;;3.80;;
72053;SDS011;59918;51.280;7.950;2023-05-16T04:53:11;9.85;;;3.53;;
72053;SDS011;59918;51.280;7.950;2023-05-16T04:55:36;5.82;;;3.53;;
72053;SDS011;59918;51.280;7.950;2023-05-16T04:58:05;5.72;;;3.95;;
72053;SDS011;59918;51.280;7.950;2023-05-16T05:00:30;14.25;;;4.40;;
72053;SDS011;59918;51.280;7.950;2023-05-16T05:02:55;15.73;;;4.63;;
72053;SDS011;59918;51.280;7.950;2023-05-16T05:05:21;12.30;;;4.30;;
72053;SDS011;59918;51.280;7.950;2023-05-16T05:07:46;12.98;;;4.32;;
72053;SDS011;59918;51.280;7.950;2023-05-16T05:10:11;8.13;;;3.58;;
72053;SDS011;59918;51.280;7.950;2023-05-16T05:12:36;10.98;;;3.95;;
72053;SDS011;59918;51.280;7.950;2023-05-16T05:15:07;15.13;;;4.70;;
72053;SDS011;59918;51.280;7.950;2023-05-16T05:17:33;11.75;;;3.88;;
72053;SDS011;59918;51.280;7.950;2023-05-16T05:19:58;17.70;;;4.20;;
72053;SDS011;59918;51.280;7.950;2023-05-16T05:22:23;10.50;;;3.83;;
72053;SDS011;59918;51.280;7.950;2023-05-16T05:24:49;12.82;;;3.58;;
72053;SDS011;59918;51.280;7.950;2023-05-16T05:27:14;16.05;;;3.67;;
72053;SDS011;59918;51.280;7.950;2023-05-16T05:29:45;15.85;;;3.53;;
72053;SDS011;59918;51.280;7.950;2023-05-16T05:32:10;9.50;;;3.50;;
72053;SDS011;59918;51.280;7.950;2023-05-16T05:34:35;13.25;;;4.20;;
72053;SDS011;59918;51.280;7.950;2023-05-16T05:37:00;17.00;;;3.75;;
72053;SDS011;59918;51.280;7.950;2023-05-16T05:39:26;15.82;;;3.50;;
72053;SDS011;59918;51.280;7.950;2023-05-16T05:41:54;11.38;;;3.00;;
72053;SDS011;59918;51.280;7.950;2023-05-16T05:44:19;16.65;;;3.72;;
72053;SDS011;59918;51.280;7.950;2023-05-16T05:46:44;13.23;;;3.50;;
72053;SDS011;59918;51.280;7.950;2023-05-16T05:49:10;13.75;;;3.95;;
72053;SDS011;59918;51.280;7.950;2023-05-16T05:51:35;14.98;;;3.05;;
72053;SDS011;59918;51.280;7.950;2023-05-16T05:54:01;13.50;;;3.35;;
72053;SDS011;59918;51.280;7.950;2023-05-16T05:56:34;15.35;;;3.60;;
72053;SDS011;59918;51.280;7.950;2023-05-16T05:58:59;14.43;;;3.35;;
72053;SDS011;59918;51.280;7.950;2023-05-16T06:01:24;16.70;;;3.60;;
72053;SDS011;59918;51.280;7.950;2023-05-16T06:03:49;16.27;;;3.38;;
72053;SDS011;59918;51.280;7.950;2023-05-16T06:06:15;20.40;;;4.53;;
72053;SDS011;59918;51.280;7.950;2023-05-16T06:08:49;18.75;;;3.22;;
72053;SDS011;59918;51.280;7.950;2023-05-16T06:11:14;15.82;;;3.38;;
72053;SDS011;59918;51.280;7.950;2023-05-16T06:13:45;14.52;;;3.13;;
72053;SDS011;59918;51.280;7.950;2023-05-16T06:16:11;14.98;;;2.90;;
72053;SDS011;59918;51.280;7.950;2023-05-16T06:18:36;15.07;;;3.03;;
72053;SDS011;59918;51.280;7.950;2023-05-16T06:21:01;14.98;;;3.35;;
72053;SDS011;59918;51.280;7.950;2023-05-16T06:23:33;16.45;;;2.88;;
72053;SDS011;59918;51.280;7.950;2023-05-16T06:25:59;16.75;;;2.80;;
72053;SDS011;59918;51.280;7.950;2023-05-16T06:28:30;11.65;;;2.45;;
72053;SDS011;59918;51.280;7.950;2023-05-16T06:30:55;16.10;;;3.30;;
72053;SDS011;59918;51.280;7.950;2023-05-16T06:33:21;12.60;;;2.97;;
72053;SDS011;59918;51.280;7.950;2023-05-16T06:35:47;8.80;;;2.47;;
72053;SDS011;59918;51.280;7.950;2023-05-16T06:38:18;15.43;;;3.30;;
72053;SDS011;59918;51.280;7.950;2023-05-16T06:40:43;8.45;;;2.70;;
72053;SDS011;59918;51.280;7.950;2023-05-16T06:43:09;16.27;;;3.33;;
72053;SDS011;59918;51.280;7.950;2023-05-16T06:45:34;9.75;;;3.08;;
72053;SDS011;59918;51.280;7.950;2023-05-16T06:47:59;15.80;;;3.22;;
72053;SDS011;59918;51.280;7.950;2023-05-16T06:50:28;11.23;;;2.65;;
72053;SDS011;59918;51.280;7.950;2023-05-16T06:52:53;12.13;;;3.15;;
72053;SDS011;59918;51.280;7.950;2023-05-16T06:55:18;15.70;;;3.20;;
72053;SDS011;59918;51.280;7.950;2023-05-16T06:57:44;19.85;;;2.90;;
72053;SDS011;59918;51.280;7.950;2023-05-16T07:00:09;8.38;;;2.17;;
72053;SDS011;59918;51.280;7.950;2023-05-16T07:02:34;8.88;;;1.65;;
72053;SDS011;59918;51.280;7.950;2023-05-16T07:05:03;13.52;;;2.50;;
72053;SDS011;59918;51.280;7.950;2023-05-16T07:07:28;12.95;;;2.40;;
72053;SDS011;59918;51.280;7.950;2023-05-16T07:09:53;10.90;;;2.30;;
72053;SDS011;59918;51.280;7.950;2023-05-16T07:12:19;10.18;;;1.63;;
72053;SDS011;59918;51.280;7.950;2023-05-16T07:14:44;13.70;;;2.50;;
72053;SDS011;59918;51.280;7.950;2023-05-16T07:17:09;6.53;;;2.05;;
72053;SDS011;59918;51.280;7.950;2023-05-16T07:19:34;10.13;;;2.15;;
72053;SDS011;59918;51.280;7.950;2023-05-16T07:22:06;8.32;;;1.95;;
72053;SDS011;59918;51.280;7.950;2023-05-16T07:24:31;10.20;;;2.67;;
72053;SDS011;59918;51.280;7.950;2023-05-16T07:26:56;11.02;;;2.00;;
72053;SDS011;59918;51.280;7.950;2023-05-16T07:29:21;6.95;;;2.13;;
72053;SDS011;59918;51.280;7.950;2023-05-16T07:31:47;11.32;;;1.92;;
72053;SDS011;59918;51.280;7.950;2023-05-16T07:34:15;10.52;;;1.63;;
72053;SDS011;59918;51.280;7.950;2023-05-16T07:36:41;8.52;;;1.45;;
72053;SDS011;59918;51.280;7.950;2023-05-16T07:39:06;13.05;;;2.17;;
72053;SDS011;59918;51.280;7.950;2023-05-16T07:41:31;11.55;;;2.60;;
72053;SDS011;59918;51.280;7.950;2023-05-16T07:43:56;12.07;;;2.00;;
72053;SDS011;59918;51.280;7.950;2023-05-16T07:46:22;10.35;;;1.65;;
72053;SDS011;59918;51.280;7.950;2023-05-16T07:48:47;7.35;;;2.85;;
72053;SDS011;59918;51.280;7.950;2023-05-16T07:51:15;12.10;;;3.28;;
72053;SDS011;59918;51.280;7.950;2023-05-16T07:53:41;7.95;;;2.00;;
72053;SDS011;59918;51.280;7.950;2023-05-16T07:56:06;7.10;;;1.75;;
72053;SDS011;59918;51.280;7.950;2023-05-16T07:58:32;10.55;;;2.17;;
72053;SDS011;59918;51.280;7.950;2023-05-16T08:00:57;11.50;;;2.97;;
72053;SDS011;59918;51.280;7.950;2023-05-16T08:03:22;9.27;;;2.40;;
72053;SDS011;59918;51.280;7.950;2023-05-16T08:08:22;8.32;;;2.15;;
72053;SDS011;59918;51.280;7.950;2023-05-16T08:10:47;8.15;;;2.20;;
72053;SDS011;59918;51.280;7.950;2023-05-16T08:13:15;10.55;;;1.63;;
72053;SDS011;59918;51.280;7.950;2023-05-16T08:15:41;10.40;;;1.60;;
72053;SDS011;59918;51.280;7.950;2023-05-16T08:18:07;9.43;;;2.03;;
72053;SDS011;59918;51.280;7.950;2023-05-16T08:20:40;8.93;;;1.65;;
72053;SDS011;59918;51.280;7.950;2023-05-16T08:23:06;15.15;;;2.40;;
72053;SDS011;59918;51.280;7.950;2023-05-16T08:25:32;10.68;;;1.80;;
72053;SDS011;59918;51.280;7.950;2023-05-16T08:27:57;12.70;;;2.70;;
72053;SDS011;59918;51.280;7.950;2023-05-16T08:30:22;12.30;;;3.15;;
72053;SDS011;59918;51.280;7.950;2023-05-16T08:32:47;11.95;;;2.63;;
72053;SDS011;59918;51.280;7.950;2023-05-16T08:35:22;7.60;;;1.65;;
72053;SDS011;59918;51.280;7.950;2023-05-16T08:37:47;15.23;;;2.03;;
72053;SDS011;59918;51.280;7.950;2023-05-16T08:40:15;7.95;;;1.90;;
72053;SDS011;59918;51.280;7.950;2023-05-16T08:42:41;11.23;;;2.05;;
72053;SDS011;59918;51.280;7.950;2023-05-16T08:45:06;12.10;;;2.38;;
72053;SDS011;59918;51.280;7.950;2023-05-16T08:47:32;14.45;;;1.80;;
72053;SDS011;59918;51.280;7.950;2023-05-16T08:49:58;10.00;;;1.95;;
72053;SDS011;59918;51.280;7.950;2023-05-16T08:52:29;7.82;;;1.77;;
72053;SDS011;59918;51.280;7.950;2023-05-16T08:55:00;7.53;;;1.67;;
72053;SDS011;59918;51.280;7.950;2023-05-16T08:57:29;10.15;;;2.33;;
72053;SDS011;59918;51.280;7.950;2023-05-16T08:59:56;9.35;;;1.50;;
72053;SDS011;59918;51.280;7.950;2023-05-16T09:02:22;9.23;;;1.60;;
72053;SDS011;59918;51.280;7.950;2023-05-16T09:04:52;8.10;;;1.65;;
72053;SDS011;59918;51.280;7.950;2023-05-16T09:07:18;8.98;;;1.65;;
72053;SDS011;59918;51.280;7.950;2023-05-16T09:09:43;4.60;;;1.30;;
72053;SDS011;59918;51.280;7.950;2023-05-16T09:12:09;5.45;;;1.25;;
72053;SDS011;59918;51.280;7.950;2023-05-16T09:14:34;6.05;;;1.77;;
72053;SDS011;59918;51.280;7.950;2023-05-16T09:17:06;8.00;;;1.60;;
72053;SDS011;59918;51.280;7.950;2023-05-16T09:20:16;9.00;;;1.20;;
72053;SDS011;59918;51.280;7.950;2023-05-16T09:22:21;10.73;;;1.58;;
72053;SDS011;59918;51.280;7.950;2023-05-16T09:24:47;12.40;;;1.70;;
72053;SDS011;59918;51.280;7.950;2023-05-16T09:27:18;10.02;;;1.73;;
72053;SDS011;59918;51.280;7.950;2023-05-16T09:29:45;5.50;;;1.88;;
72053;SDS011;59918;51.280;7.950;2023-05-16T09:32:19;8.85;;;1.67;;
72053;SDS011;59918;51.280;7.950;2023-05-16T09:34:45;6.53;;;1.52;;
72053;SDS011;59918;51.280;7.950;2023-05-16T09:37:11;5.10;;;1.50;;
72053;SDS011;59918;51.280;7.950;2023-05-16T09:42:12;5.35;;;1.35;;
72053;SDS011;59918;51.280;7.950;2023-05-16T09:44:53;6.35;;;1.35;;
72053;SDS011;59918;51.280;7.950;2023-05-16T09:47:19;9.10;;;1.20;;
72053;SDS011;59918;51.280;7.950;2023-05-16T09:49:46;5.38;;;1.35;;
72053;SDS011;59918;51.280;7.950;2023-05-16T09:52:15;11.85;;;1.63;;
72053;SDS011;59918;51.280;7.950;2023-05-16T09:54:41;7.35;;;1.38;;
72053;SDS011;59918;51.280;7.950;2023-05-16T09:57:08;7.00;;;1.25;;
72053;SDS011;59918;51.280;7.950;2023-05-16T09:59:34;8.02;;;1.10;;
72053;SDS011;59918;51.280;7.950;2023-05-16T10:02:06;5.13;;;1.50;;
72053;SDS011;59918;51.280;7.950;2023-05-16T10:04:32;7.97;;;1.35;;
72053;SDS011;59918;51.280;7.950;2023-05-16T10:06:59;8.88;;;1.70;;
72053;SDS011;59918;51.280;7.950;2023-05-16T10:09:30;4.50;;;1.35;;
72053;SDS011;59918;51.280;7.950;2023-05-16T10:11:57;5.60;;;1.35;;
72053;SDS011;59918;51.280;7.950;2023-05-16T10:14:24;4.18;;;1.15;;
72053;SDS011;59918;51.280;7.950;2023-05-16T10:16:59;7.25;;;1.67;;
72053;SDS011;59918;51.280;7.950;2023-05-16T10:19:30;5.15;;;1.60;;
72053;SDS011;59918;51.280;7.950;2023-05-16T10:21:57;5.38;;;1.10;;
72053;SDS011;59918;51.280;7.950;2023-05-16T10:24:27;4.30;;;0.95;;
72053;SDS011;59918;51.280;7.950;2023-05-16T10:27:19;5.53;;;1.15;;
72053;SDS011;59918;51.280;7.950;2023-05-16T10:29:44;5.18;;;1.23;;
72053;SDS011;59918;51.280;7.950;2023-05-16T10:32:10;4.93;;;1.10;;
72053;SDS011;59918;51.280;7.950;2023-05-16T10:34:36;6.45;;;1.17;;
72053;SDS011;59918;51.280;7.950;2023-05-16T10:37:06;4.68;;;0.90;;
72053;SDS011;59918;51.280;7.950;2023-05-16T10:39:32;2.10;;;0.77;;
72053;SDS011;59918;51.280;7.950;2023-05-16T10:41:58;3.92;;;0.98;;
72053;SDS011;59918;51.280;7.950;2023-05-16T10:44:23;4.10;;;0.88;;
72053;SDS011;59918;51.280;7.950;2023-05-16T10:46:52;5.07;;;0.98;;
72053;SDS011;59918;51.280;7.950;2023-05-16T10:49:24;6.13;;;1.65;;
72053;SDS011;59918;51.280;7.950;2023-05-16T10:52:08;2.92;;;0.85;;
72053;SDS011;59918;51.280;7.950;2023-05-16T10:57:06;3.20;;;1.33;;
72053;SDS011;59918;51.280;7.950;2023-05-16T10:59:43;2.85;;;1.10;;
72053;SDS011;59918;51.280;7.950;2023-05-16T11:02:23;7.28;;;1.58;;
72053;SDS011;59918;51.280;7.950;2023-05-16T11:04:56;4.45;;;0.90;;
72053;SDS011;59918;51.280;7.950;2023-05-16T11:07:22;3.10;;;1.10;;
72053;SDS011;59918;51.280;7.950;2023-05-16T11:09:52;1.10;;;0.90;;
72053;SDS011;59918;51.280;7.950;2023-05-16T11:12:43;2.97;;;1.13;;
72053;SDS011;59918;51.280;7.950;2023-05-16T11:18:06;2.85;;;1.30;;
72053;SDS011;59918;51.280;7.950;2023-05-16T11:20:33;3.85;;;1.38;;
72053;SDS011;59918;51.280;7.950;2023-05-16T11:23:16;3.60;;;1.45;;
72053;SDS011;59918;51.280;7.950;2023-05-16T11:25:45;3.65;;;1.10;;
72053;SDS011;59918;51.280;7.950;2023-05-16T11:28:33;3.72;;;1.10;;
72053;SDS011;59918;51.280;7.950;2023-05-16T11:31:06;1.92;;;0.80;;
72053;SDS011;59918;51.280;7.950;2023-05-16T11:33:32;3.45;;;1.10;;
72053;SDS011;59918;51.280;7.950;2023-05-16T11:36:05;3.15;;;1.00;;
72053;SDS011;59918;51.280;7.950;2023-05-16T11:38:32;3.45;;;1.20;;
72053;SDS011;59918;51.280;7.950;2023-05-16T11:41:04;3.40;;;1.20;;
72053;SDS011;59918;51.280;7.950;2023-05-16T11:43:40;5.43;;;1.20;;
72053;SDS011;59918;51.280;7.950;2023-05-16T11:46:10;5.95;;;1.20;;
72053;SDS011;59918;51.280;7.950;2023-05-16T11:48:36;1.75;;;1.05;;
72053;SDS011;59918;51.280;7.950;2023-05-16T11:51:05;1.85;;;0.90;;
72053;SDS011;59918;51.280;7.950;2023-05-16T11:53:30;4.75;;;1.10;;
72053;SDS011;59918;51.280;7.950;2023-05-16T11:55:55;1.23;;;0.85;;
72053;SDS011;59918;51.280;7.950;2023-05-16T11:58:21;2.20;;;1.25;;
72053;SDS011;59918;51.280;7.950;2023-05-16T12:00:47;2.08;;;0.77;;
72053;SDS011;59918;51.280;7.950;2023-05-16T12:03:13;4.47;;;1.13;;
72053;SDS011;59918;51.280;7.950;2023-05-16T12:05:53;2.42;;;0.85;;
72053;SDS011;59918;51.280;7.950;2023-05-16T12:08:20;7.03;;;1.07;;
72053;SDS011;59918;51.280;7.950;2023-05-16T12:10:46;2.28;;;0.98;;
72053;SDS011;59918;51.280;7.950;2023-05-16T12:13:16;2.50;;;0.80;;
72053;SDS011;59918;51.280;7.950;2023-05-16T12:15:43;5.00;;;0.88;;
72053;SDS011;59918;51.280;7.950;2023-05-16T12:18:09;4.93;;;1.10;;
72053;SDS011;59918;51.280;7.950;2023-05-16T12:20:35;5.53;;;1.27;;
72053;SDS011;59918;51.280;7.950;2023-05-16T12:23:10;1.77;;;0.90;;
72053;SDS011;59918;51.280;7.950;2023-05-16T12:25:36;2.55;;;1.20;;
72053;SDS011;59918;51.280;7.950;2023-05-16T12:28:04;5.53;;;0.95;;
72053;SDS011;59918;51.280;7.950;2023-05-16T12:30:30;3.13;;;1.00;;
72053;SDS011;59918;51.280;7.950;2023-05-16T12:35:31;3.80;;;1.38;;
72053;SDS011;59918;51.280;7.950;2023-05-16T12:38:07;2.03;;;1.10;;
72053;SDS011;59918;51.280;7.950;2023-05-16T12:40:35;7.22;;;0.90;;
72053;SDS011;59918;51.280;7.950;2023-05-16T12:43:11;4.07;;;1.48;;
72053;SDS011;59918;51.280;7.950;2023-05-16T12:45:53;3.10;;;1.15;;
72053;SDS011;59918;51.280;7.950;2023-05-16T12:48:21;2.10;;;1.20;;
72053;SDS011;59918;51.280;7.950;2023-05-16T12:50:47;4.32;;;0.93;;
72053;SDS011;59918;51.280;7.950;2023-05-16T12:53:16;2.97;;;1.10;;
72053;SDS011;59918;51.280;7.950;2023-05-16T12:55:42;3.38;;;0.93;;
72053;SDS011;59918;51.280;7.950;2023-05-16T12:58:08;2.97;;;0.70;;
72053;SDS011;59918;51.280;7.950;2023-05-16T13:00:34;4.20;;;1.17;;
72053;SDS011;59918;51.280;7.950;2023-05-16T13:03:06;2.70;;;1.00;;
72053;SDS011;59918;51.280;7.950;2023-05-16T13:05:32;5.93;;;1.33;;
72053;SDS011;59918;51.280;7.950;2023-05-16T13:07:57;3.67;;;1.08;;
72053;SDS011;59918;51.280;7.950;2023-05-16T13:10:23;2.20;;;0.93;;
72053;SDS011;59918;51.280;7.950;2023-05-16T13:12:48;2.55;;;1.33;;
72053;SDS011;59918;51.280;7.950;2023-05-16T13:15:19;4.53;;;1.00;;
72053;SDS011;59918;51.280;7.950;2023-05-16T13:17:44;3.88;;;0.95;;
72053;SDS011;59918;51.280;7.950;2023-05-16T13:20:10;5.93;;;1.38;;
72053;SDS011;59918;51.280;7.950;2023-05-16T13:22:35;5.32;;;0.98;;
72053;SDS011;59918;51.280;7.950;2023-05-16T13:25:07;3.50;;;1.13;;
72053;SDS011;59918;51.280;7.950;2023-05-16T13:29:58;2.45;;;0.90;;
72053;SDS011;59918;51.280;7.950;2023-05-16T13:32:24;3.80;;;1.00;;
72053;SDS011;59918;51.280;7.950;2023-05-16T13:34:58;1.95;;;0.68;;
72053;SDS011;59918;51.280;7.950;2023-05-16T13:37:23;2.47;;;0.87;;
72053;SDS011;59918;51.280;7.950;2023-05-16T13:39:58;4.82;;;1.02;;
72053;SDS011;59918;51.280;7.950;2023-05-16T13:42:23;3.85;;;1.08;;
72053;SDS011;59918;51.280;7.950;2023-05-16T13:44:54;3.85;;;1.25;;
72053;SDS011;59918;51.280;7.950;2023-05-16T13:47:20;3.23;;;1.53;;
72053;SDS011;59918;51.280;7.950;2023-05-16T13:49:45;3.30;;;1.10;;
72053;SDS011;59918;51.280;7.950;2023-05-16T13:52:10;1.92;;;1.00;;
72053;SDS011;59918;51.280;7.950;2023-05-16T13:54:36;2.85;;;1.02;;
72053;SDS011;59918;51.280;7.950;2023-05-16T13:57:04;3.15;;;0.98;;
72053;SDS011;59918;51.280;7.950;2023-05-16T13:59:29;2.28;;;0.98;;
72053;SDS011;59918;51.280;7.950;2023-05-16T14:01:55;1.67;;;0.77;;
72053;SDS011;59918;51.280;7.950;2023-05-16T14:04:20;1.90;;;0.73;;
72053;SDS011;59918;51.280;7.950;2023-05-16T14:06:45;2.37;;;0.80;;
72053;SDS011;59918;51.280;7.950;2023-05-16T14:09:10;3.67;;;0.95;;
72053;SDS011;59918;51.280;7.950;2023-05-16T14:11:35;3.03;;;1.02;;
72053;SDS011;59918;51.280;7.950;2023-05-16T14:14:01;1.40;;;0.98;;
72053;SDS011;59918;51.280;7.950;2023-05-16T14:16:35;2.45;;;0.98;;
72053;SDS011;59918;51.280;7.950;2023-05-16T14:19:00;2.00;;;1.02;;
72053;SDS011;59918;51.280;7.950;2023-05-16T14:21:31;4.18;;;1.40;;
72053;SDS011;59918;51.280;7.950;2023-05-16T14:23:59;1.80;;;1.23;;
72053;SDS011;59918;51.280;7.950;2023-05-16T14:26:24;4.10;;;1.05;;
72053;SDS011;59918;51.280;7.950;2023-05-16T14:28:55;5.50;;;1.13;;
72053;SDS011;59918;51.280;7.950;2023-05-16T14:31:20;2.90;;;1.00;;
72053;SDS011;59918;51.280;7.950;2023-05-16T14:33:46;1.98;;;1.00;;
72053;SDS011;59918;51.280;7.950;2023-05-16T14:36:11;4.53;;;1.02;;
72053;SDS011;59918;51.280;7.950;2023-05-16T14:38:44;2.22;;;1.13;;
72053;SDS011;59918;51.280;7.950;2023-05-16T14:41:09;2.92;;;1.20;;
72053;SDS011;59918;51.280;7.950;2023-05-16T14:43:35;2.95;;;0.90;;
72053;SDS011;59918;51.280;7.950;2023-05-16T14:46:00;2.40;;;1.20;;
72053;SDS011;59918;51.280;7.950;2023-05-16T14:48:25;4.65;;;1.35;;
72053;SDS011;59918;51.280;7.950;2023-05-16T14:50:53;2.40;;;0.90;;
72053;SDS011;59918;51.280;7.950;2023-05-16T14:53:19;3.05;;;0.90;;
72053;SDS011;59918;51.280;7.950;2023-05-16T14:55:44;1.17;;;0.90;;
72053;SDS011;59918;51.280;7.950;2023-05-16T14:58:09;2.67;;;0.80;;
72053;SDS011;59918;51.280;7.950;2023-05-16T15:00:35;1.52;;;0.93;;
72053;SDS011;59918;51.280;7.950;2023-05-16T15:03:00;3.42;;;0.90;;
72053;SDS011;59918;51.280;7.950;2023-05-16T15:05:25;3.40;;;0.98;;
72053;SDS011;59918;51.280;7.950;2023-05-16T15:07:54;2.47;;;0.82;;
72053;SDS011;59918;51.280;7.950;2023-05-16T15:10:19;2.80;;;0.90;;
72053;SDS011;59918;51.280;7.950;2023-05-16T15:12:44;1.65;;;0.80;;
72053;SDS011;59918;51.280;7.950;2023-05-16T15:15:09;2.55;;;1.27;;
72053;SDS011;59918;51.280;7.950;2023-05-16T15:17:36;1.88;;;1.17;;
72053;SDS011;59918;51.280;7.950;2023-05-16T15:20:08;3.33;;;1.00;;
72053;SDS011;59918;51.280;7.950;2023-05-16T15:22:35;1.92;;;0.93;;